Time;durP1;ratioP1;P1;durP2;ratioP2;P2;SDS_P1;SDS_P2;PMS_P1;PMS_P2;Temp;Humidity;BMP_temperature;BMP_pressure;BME280_temperature;BME280_humidity;BME280_pressure;Samples;Min_cycle;Max_cycle;Signal;HPM_P1;HPM_P2
2024/03/27 00:00:41;;;;;;;4.25;1.63;;;;;;;15.24;62.59;98432.94;5251935;28;20037;-78
2024/03/27 00:03:13;;;;;;;6.18;2.00;;;;;;;15.28;62.37;98433.31;5254728;28;20675;-79
2024/03/27 00:05:45;;;;;;;3.70;1.67;;;;;;;15.23;62.32;98430.53;5251554;28;20032;-79
2024/03/27 00:08:17;;;;;;;6.53;1.70;;;;;;;15.22;62.40;98432.31;5251351;28;20041;-78
2024/03/27 00:10:50;;;;;;;3.58;1.75;;;;;;;15.24;61.81;98427.66;5252022;28;20051;-79
2024/03/27 00:13:22;;;;;;;5.28;1.50;;;;;;;15.14;62.49;98429.97;5253059;28;20036;-78
2024/03/27 00:15:54;;;;;;;6.85;1.75;;;;;;;15.13;62.95;98436.28;5252855;28;20192;-79
2024/03/27 00:18:26;;;;;;;3.80;1.88;;;;;;;15.21;62.38;98433.38;5251914;28;20032;-79
2024/03/27 00:20:58;;;;;;;6.00;1.70;;;;;;;15.11;62.24;98417.22;5251585;28;20052;-79
2024/03/27 00:23:30;;;;;;;3.80;1.43;;;;;;;15.13;62.35;98417.84;5251137;28;20176;-79
2024/03/27 00:26:02;;;;;;;8.32;2.25;;;;;;;15.10;62.85;98407.72;5252978;28;20029;-79
2024/03/27 00:28:34;;;;;;;6.30;2.10;;;;;;;15.03;62.96;98405.13;5253254;28;20033;-79
2024/03/27 00:31:06;;;;;;;3.92;1.60;;;;;;;14.94;63.82;98397.75;5252117;28;20044;-79
2024/03/27 00:33:38;;;;;;;6.50;1.88;;;;;;;14.93;63.65;98398.78;5251830;28;20041;-79
2024/03/27 00:36:10;;;;;;;6.72;1.80;;;;;;;14.90;64.28;98399.22;5252887;28;20020;-79
2024/03/27 00:38:42;;;;;;;6.63;1.67;;;;;;;14.87;64.32;98405.72;5252904;28;20443;-79
2024/03/27 00:41:14;;;;;;;2.97;1.60;;;;;;;14.89;63.82;98401.03;5253419;28;20056;-78
2024/03/27 00:43:46;;;;;;;5.72;1.85;;;;;;;14.81;64.55;98399.50;5259023;28;20383;-78
2024/03/27 00:46:18;;;;;;;5.75;1.92;;;;;;;14.80;64.96;98397.84;5266422;28;20021;-78
2024/03/27 00:48:50;;;;;;;4.30;1.65;;;;;;;14.80;64.85;98392.59;5249591;28;20032;-79
2024/03/27 00:51:22;;;;;;;5.15;1.63;;;;;;;14.78;64.79;98394.66;5247144;28;20402;-78
2024/03/27 00:53:54;;;;;;;6.38;2.05;;;;;;;14.71;66.19;98393.09;5245069;28;20032;-78
2024/03/27 00:56:27;;;;;;;6.50;1.98;;;;;;;14.67;66.08;98389.28;5245100;28;20035;-78
2024/03/27 00:58:58;;;;;;;6.85;1.67;;;;;;;14.63;66.11;98390.75;5245288;28;20033;-78
2024/03/27 01:01:30;;;;;;;9.02;2.42;;;;;;;14.66;66.14;98385.84;5247129;28;20737;-78
2024/03/27 01:04:02;;;;;;;4.18;1.42;;;;;;;14.63;66.60;98390.75;5247030;28;20032;-79
2024/03/27 01:06:34;;;;;;;4.82;1.90;;;;;;;14.51;66.92;98388.81;5246193;28;20128;-78
2024/03/27 01:09:08;;;;;;;5.75;2.10;;;;;;;14.49;67.66;98392.63;5244159;28;20047;-79
2024/03/27 01:11:40;;;;;;;6.70;1.73;;;;;;;14.48;68.29;98391.03;5245428;28;20036;-78
2024/03/27 01:14:11;;;;;;;6.18;2.08;;;;;;;14.44;68.37;98379.31;5243041;28;20036;-78
2024/03/27 01:16:43;;;;;;;6.93;2.00;;;;;;;14.42;68.57;98389.25;5245045;28;20028;-78
2024/03/27 01:19:15;;;;;;;9.10;2.55;;;;;;;14.38;68.62;98385.44;5245673;28;20048;-78
2024/03/27 01:21:47;;;;;;;9.20;1.95;;;;;;;14.28;68.55;98368.28;5227751;28;20056;-79
2024/03/27 01:24:19;;;;;;;9.75;2.17;;;;;;;14.31;68.59;98380.22;5246609;28;20029;-78
2024/03/27 01:26:51;;;;;;;8.50;1.95;;;;;;;14.18;69.51;98367.97;5244756;28;20297;-78
2024/03/27 01:29:23;;;;;;;5.38;1.90;;;;;;;14.22;70.13;98382.31;5245545;28;20997;-78
2024/03/27 01:31:55;;;;;;;8.18;2.38;;;;;;;14.12;70.50;98380.13;5246700;28;20047;-78
2024/03/27 01:34:27;;;;;;;8.55;2.95;;;;;;;14.04;70.92;98369.06;5244492;28;20037;-78
2024/03/27 01:36:59;;;;;;;5.07;2.08;;;;;;;14.10;71.07;98370.84;5246601;28;20398;-79
2024/03/27 01:39:31;;;;;;;8.98;2.75;;;;;;;14.01;70.99;98361.59;5242743;28;20120;-79
2024/03/27 01:42:03;;;;;;;4.95;2.13;;;;;;;13.95;72.68;98362.47;5244099;28;20032;-79
2024/03/27 01:44:35;;;;;;;6.68;2.53;;;;;;;13.90;72.18;98368.34;5243776;28;20132;-78
2024/03/27 01:47:10;;;;;;;6.88;2.30;;;;;;;13.97;72.42;98363.03;5246297;28;20040;-79
2024/03/27 01:49:43;;;;;;;9.52;2.75;;;;;;;13.79;72.66;98350.63;5248172;28;20032;-78
2024/03/27 01:52:15;;;;;;;7.18;2.10;;;;;;;13.78;73.47;98352.41;5250189;28;20496;-79
2024/03/27 01:54:47;;;;;;;5.65;2.35;;;;;;;13.77;73.65;98350.00;5250821;28;20044;-79
2024/03/27 01:57:21;;;;;;;4.30;2.30;;;;;;;13.86;73.69;98346.09;5248850;28;20029;-79
2024/03/27 01:59:52;;;;;;;;;;;;;;;14.65;68.88;98347.31;5247116;28;20595;-78
2024/03/27 02:02:24;;;;;;;4.50;2.38;;;;;;;13.79;73.34;98332.19;5250501;28;19924;-78
2024/03/27 02:04:57;;;;;;;6.50;2.35;;;;;;;13.76;73.81;98343.94;5248540;28;20033;-79
2024/03/27 02:07:28;;;;;;;8.73;2.67;;;;;;;13.74;74.43;98345.16;5249259;28;20061;-79
2024/03/27 02:10:02;;;;;;;6.32;2.50;;;;;;;13.69;74.85;98339.75;5249270;28;20086;-78
2024/03/27 02:12:35;;;;;;;5.20;2.05;;;;;;;13.67;75.30;98336.50;5246200;28;20044;-79
2024/03/27 02:15:08;;;;;;;3.95;2.13;;;;;;;13.59;76.14;98335.72;5248423;28;20035;-79
2024/03/27 02:17:40;;;;;;;6.25;2.30;;;;;;;13.55;76.70;98326.66;5250539;28;20353;-78
2024/03/27 02:20:12;;;;;;;8.77;2.92;;;;;;;13.58;76.17;98331.50;5247749;28;20032;-78
2024/03/27 02:22:44;;;;;;;8.75;3.00;;;;;;;13.56;76.61;98328.28;5249746;28;20395;-79
2024/03/27 02:25:26;;;;;;;6.07;2.92;;;;;;;13.76;76.52;98325.53;5250117;28;20238;-78
2024/03/27 02:27:58;;;;;;;6.50;2.50;;;;;;;13.53;77.17;98335.78;5248631;28;20033;-78
2024/03/27 02:30:30;;;;;;;5.07;2.08;;;;;;;13.47;76.67;98329.53;5249474;28;20033;-78
2024/03/27 02:33:02;;;;;;;6.78;2.20;;;;;;;13.43;77.96;98332.78;5251482;28;20024;-78
2024/03/27 02:35:34;;;;;;;5.40;1.98;;;;;;;13.46;78.00;98329.75;5250759;28;20035;-79
2024/03/27 02:38:06;;;;;;;4.72;2.03;;;;;;;13.39;77.91;98319.25;5249930;28;20027;-79
2024/03/27 02:40:38;;;;;;;6.13;2.15;;;;;;;13.27;78.57;98305.97;5248063;28;20040;-79
2024/03/27 02:43:09;;;;;;;9.73;2.80;;;;;;;13.33;78.90;98313.03;5250370;28;20033;-79
2024/03/27 02:45:41;;;;;;;4.47;2.20;;;;;;;13.25;79.37;98299.28;5249760;28;20029;-79
2024/03/27 02:48:14;;;;;;;6.28;2.35;;;;;;;13.35;79.27;98318.06;5250155;28;20047;-79
2024/03/27 02:50:46;;;;;;;4.18;1.70;;;;;;;13.37;78.59;98308.94;5254000;28;20041;-78
2024/03/27 02:53:18;;;;;;;5.30;2.05;;;;;;;13.28;79.08;98309.41;5259908;28;20060;-78
2024/03/27 02:55:51;;;;;;;5.78;2.30;;;;;;;13.23;80.26;98315.28;5244413;28;20024;-78
2024/03/27 02:58:23;;;;;;;4.88;2.35;;;;;;;13.29;80.29;98317.06;5242955;28;20021;-79
2024/03/27 03:00:55;;;;;;;7.25;2.70;;;;;;;13.22;79.85;98324.16;5243351;28;20292;-78
2024/03/27 03:03:27;;;;;;;4.80;2.45;;;;;;;13.20;81.06;98325.38;5245529;28;20028;-79
2024/03/27 03:05:58;;;;;;;5.82;2.03;;;;;;;13.18;82.85;98322.94;5245957;28;20412;-78
2024/03/27 03:08:30;;;;;;;4.68;1.58;;;;;;;13.10;83.15;98331.88;5243401;28;20040;-79
2024/03/27 03:11:02;;;;;;;3.45;1.17;;;;;;;13.19;80.89;98336.91;5244210;28;20029;-78
2024/03/27 03:13:34;;;;;;;3.92;1.00;;;;;;;13.24;77.93;98339.75;5245998;28;20056;-78
2024/03/27 03:16:06;;;;;;;1.95;0.50;;;;;;;13.18;77.58;98346.59;5244340;28;20036;-77
2024/03/27 03:18:38;;;;;;;1.10;0.60;;;;;;;13.12;75.63;98350.88;5241601;28;20043;-78
2024/03/27 03:21:10;;;;;;;1.92;0.68;;;;;;;13.10;74.83;98352.91;5240113;28;20051;-78
2024/03/27 03:23:42;;;;;;;1.10;0.60;;;;;;;13.08;73.30;98357.56;5243952;28;20033;-78
2024/03/27 03:26:14;;;;;;;2.05;0.70;;;;;;;13.03;72.89;98367.06;5243698;28;20591;-79
2024/03/27 03:28:46;;;;;;;1.33;0.70;;;;;;;13.04;73.01;98360.81;5244026;28;20037;-78
2024/03/27 03:31:17;;;;;;;1.13;0.65;;;;;;;13.10;72.26;98362.59;5244380;28;20589;-78
2024/03/27 03:33:50;;;;;;;2.22;1.27;;;;;;;13.03;72.32;98361.81;5244802;28;20029;-78
2024/03/27 03:36:21;;;;;;;1.38;0.60;;;;;;;12.99;72.83;98358.00;5249813;28;20032;-79
2024/03/27 03:38:53;;;;;;;1.48;0.70;;;;;;;13.05;72.25;98355.34;5247976;28;20102;-77
2024/03/27 03:41:25;;;;;;;0.77;0.55;;;;;;;13.03;72.73;98343.41;5250337;28;20682;-78
2024/03/27 03:43:57;;;;;;;2.70;0.60;;;;;;;13.01;72.49;98348.91;5249174;28;20079;-78
2024/03/27 03:46:29;;;;;;;1.30;0.60;;;;;;;13.02;74.04;98347.88;5250024;28;20043;-78
2024/03/27 03:49:01;;;;;;;1.25;0.60;;;;;;;13.07;72.44;98340.19;5246273;28;20033;-79
2024/03/27 03:51:33;;;;;;;0.85;0.60;;;;;;;13.02;73.11;98331.31;5250330;28;20037;-78
2024/03/27 03:54:07;;;;;;;2.00;0.67;;;;;;;13.02;73.64;98332.09;5251692;28;20033;-79
2024/03/27 03:56:39;;;;;;;2.42;0.90;;;;;;;12.96;73.30;98325.06;5252234;28;20024;-79
2024/03/27 03:59:11;;;;;;;1.23;0.82;;;;;;;12.94;74.58;98318.38;5250138;28;20035;-78
2024/03/27 04:01:43;;;;;;;2.65;1.50;;;;;;;12.81;75.47;98306.91;5252400;28;20036;-78
2024/03/27 04:04:14;;;;;;;2.38;1.35;;;;;;;12.87;76.00;98300.00;5251270;28;20203;-79
2024/03/27 04:06:46;;;;;;;1.95;1.40;;;;;;;12.81;76.40;98292.97;5252873;28;20035;-78
2024/03/27 04:09:18;;;;;;;4.18;1.60;;;;;;;12.81;75.61;98288.53;5250613;28;20107;-78
2024/03/27 04:11:50;;;;;;;1.65;1.15;;;;;;;12.78;76.69;98281.03;5252381;28;20029;-78
2024/03/27 04:14:22;;;;;;;2.90;1.60;;;;;;;12.82;77.08;98292.75;5253062;28;20433;-78
2024/03/27 04:16:54;;;;;;;2.35;1.80;;;;;;;12.80;78.23;98300.03;5252262;28;20287;-79
2024/03/27 04:19:26;;;;;;;2.00;1.67;;;;;;;12.83;78.76;98304.06;5251224;28;20385;-79
2024/03/27 04:21:58;;;;;;;2.15;1.40;;;;;;;12.78;79.00;98299.44;5252601;28;20039;-78
2024/03/27 04:24:30;;;;;;;2.97;1.67;;;;;;;12.78;79.47;98293.38;5251796;28;20047;-79
2024/03/27 04:27:02;;;;;;;2.38;1.55;;;;;;;12.82;79.71;98300.63;5251803;28;20044;-79
2024/03/27 04:29:33;;;;;;;2.15;1.50;;;;;;;12.74;81.50;98314.00;5251301;28;20040;-78
2024/03/27 04:32:05;;;;;;;2.00;1.70;;;;;;;12.80;82.16;98313.16;5253728;28;20043;-79
2024/03/27 04:34:37;;;;;;;2.70;1.80;;;;;;;12.72;83.61;98315.22;5252447;28;20520;-78
2024/03/27 04:37:09;;;;;;;3.15;1.73;;;;;;;12.72;83.83;98321.28;5250872;28;20386;-78
2024/03/27 04:39:42;;;;;;;2.20;1.50;;;;;;;12.78;84.10;98324.91;5252753;28;20270;-79
2024/03/27 04:42:15;;;;;;;2.50;1.73;;;;;;;12.77;85.13;98339.88;5252776;28;20033;-78
2024/03/27 04:44:47;;;;;;;2.40;1.60;;;;;;;12.68;87.22;98335.81;5251017;28;20052;-78
2024/03/27 04:47:19;;;;;;;1.80;1.48;;;;;;;12.64;89.14;98330.19;5251486;28;20041;-79
2024/03/27 04:49:51;;;;;;;2.55;1.65;;;;;;;12.63;90.93;98341.69;5251380;28;20033;-78
2024/03/27 04:52:23;;;;;;;2.80;1.60;;;;;;;12.67;90.74;98344.72;5252809;28;21413;-79
2024/03/27 04:54:55;;;;;;;2.03;1.55;;;;;;;12.65;92.38;98341.47;5252508;28;20025;-79
2024/03/27 04:57:27;;;;;;;2.40;1.77;;;;;;;12.63;93.92;98349.59;5259146;28;20393;-78
2024/03/27 04:59:58;;;;;;;3.15;1.90;;;;;;;12.62;94.57;98347.97;5256336;28;20128;-79
2024/03/27 05:02:30;;;;;;;2.30;1.80;;;;;;;12.59;94.93;98360.72;5248265;28;20025;-78
2024/03/27 05:05:04;;;;;;;2.08;1.88;;;;;;;12.57;94.89;98371.41;5246524;28;20033;-79
2024/03/27 05:07:36;;;;;;;2.40;2.00;;;;;;;12.53;95.41;98379.91;5247933;28;20032;-79
2024/03/27 05:10:09;;;;;;;2.72;2.17;;;;;;;12.53;95.53;98379.91;5246442;28;20087;-77
2024/03/27 05:12:41;;;;;;;2.03;1.83;;;;;;;12.53;95.11;98387.78;5247772;28;20457;-79
2024/03/27 05:15:13;;;;;;;2.70;2.08;;;;;;;12.51;94.53;98372.22;5247346;28;20037;-78
2024/03/27 05:17:46;;;;;;;3.20;1.95;;;;;;;12.53;94.68;98379.91;5245790;28;20355;-78
2024/03/27 05:20:18;;;;;;;3.53;2.00;;;;;;;12.54;93.72;98373.63;5242445;28;20128;-78
2024/03/27 05:22:51;;;;;;;2.50;2.03;;;;;;;12.37;94.91;98360.91;5247869;28;20037;-79
2024/03/27 05:25:23;;;;;;;2.58;1.85;;;;;;;12.45;95.23;98388.78;5245545;28;20032;-79
2024/03/27 05:27:58;;;;;;;2.35;1.98;;;;;;;12.38;95.51;98393.22;5246063;28;20033;-78
2024/03/27 05:30:32;;;;;;;2.15;1.95;;;;;;;12.37;95.82;98391.63;5247047;28;20033;-77
2024/03/27 05:33:04;;;;;;;2.33;2.03;;;;;;;12.33;96.08;98399.09;5245334;28;20037;-78
2024/03/27 05:35:36;;;;;;;3.08;1.90;;;;;;;12.28;94.42;98398.88;5245235;28;20089;-78
2024/03/27 05:38:08;;;;;;;2.63;2.00;;;;;;;12.18;93.66;98395.84;5244599;28;21739;-79
2024/03/27 05:40:40;;;;;;;3.05;2.22;;;;;;;12.10;93.15;98388.16;5238194;28;20044;-78
2024/03/27 05:43:11;;;;;;;2.50;2.25;;;;;;;12.19;92.39;98400.06;5242093;28;20039;-79
2024/03/27 05:45:45;;;;;;;2.65;2.00;;;;;;;12.19;92.05;98413.19;5240734;28;20033;-79
2024/03/27 05:48:18;;;;;;;;;;;;;;;12.94;85.96;98419.06;5244966;28;20036;-79
2024/03/27 05:50:52;;;;;;;2.30;2.00;;;;;;;12.26;91.42;98426.34;5241748;28;20332;-79
2024/03/27 05:53:24;;;;;;;2.20;2.00;;;;;;;12.09;90.77;98433.78;5245197;28;20553;-80
2024/03/27 05:55:57;;;;;;;3.28;2.03;;;;;;;12.11;90.91;98439.63;5243576;28;20041;-79
2024/03/27 05:58:29;;;;;;;2.90;2.25;;;;;;;12.02;90.20;98431.16;5243662;28;20028;-79
2024/03/27 06:01:01;;;;;;;3.33;2.70;;;;;;;12.12;89.33;98443.88;5250419;28;20386;-79
2024/03/27 06:03:33;;;;;;;2.95;2.38;;;;;;;12.10;89.56;98453.78;5248475;28;20074;-79
2024/03/27 06:06:06;;;;;;;2.77;2.53;;;;;;;12.09;89.24;98447.72;5251289;28;20033;-81
2024/03/27 06:08:37;;;;;;;4.55;2.60;;;;;;;12.03;90.80;98458.19;5248945;28;20287;-80
2024/03/27 06:11:09;;;;;;;3.35;2.70;;;;;;;12.00;90.80;98463.84;5247549;28;20039;-80
2024/03/27 06:13:41;;;;;;;3.40;3.10;;;;;;;11.99;89.70;98459.59;5246416;28;20033;-81
2024/03/27 06:16:13;;;;;;;3.83;3.25;;;;;;;11.82;86.32;98459.94;5247507;28;20052;-82
2024/03/27 06:18:50;;;;;;;3.83;3.03;;;;;;;11.85;83.44;98464.78;5245872;28;20041;-80
2024/03/27 06:21:22;;;;;;;4.30;3.50;;;;;;;11.79;83.95;98460.31;5248405;28;20047;-81
2024/03/27 06:23:54;;;;;;;3.40;3.05;;;;;;;11.71;83.69;98457.06;5247333;28;20037;-80
2024/03/27 06:26:26;;;;;;;5.35;3.15;;;;;;;11.69;83.22;98457.25;5245641;28;20048;-81
2024/03/27 06:28:58;;;;;;;4.43;2.65;;;;;;;11.63;82.96;98458.84;5246190;28;20394;-82
2024/03/27 06:31:30;;;;;;;3.80;2.67;;;;;;;11.56;82.37;98451.94;5249840;28;20024;-80
2024/03/27 06:34:03;;;;;;;4.20;2.38;;;;;;;11.71;82.44;98476.22;5230109;28;20048;-81
2024/03/27 06:36:34;;;;;;;3.13;2.67;;;;;;;11.66;81.47;98468.91;5247934;28;20021;-81
2024/03/27 06:39:12;;;;;;;4.82;3.00;;;;;;;11.70;81.43;98474.59;5247386;28;20031;-81
2024/03/27 06:41:44;;;;;;;3.50;2.80;;;;;;;11.74;80.92;98469.75;5249692;28;20191;-81
2024/03/27 06:44:16;;;;;;;6.85;2.95;;;;;;;11.67;81.92;98469.75;5245658;28;20053;-82
2024/03/27 06:46:48;;;;;;;3.42;2.38;;;;;;;11.71;80.10;98481.47;5248559;28;20058;-81
2024/03/27 06:49:21;;;;;;;4.07;2.33;;;;;;;11.78;79.33;98492.81;5247095;28;20040;-81
2024/03/27 06:51:53;;;;;;;4.22;2.53;;;;;;;11.70;80.37;98500.81;5248332;28;20029;-80
2024/03/27 06:54:25;;;;;;;6.32;2.50;;;;;;;11.74;80.53;98512.53;5249162;28;20080;-81
2024/03/27 06:56:57;;;;;;;4.18;2.40;;;;;;;11.72;79.09;98516.38;5248585;28;20032;-80
2024/03/27 06:59:29;;;;;;;5.05;2.35;;;;;;;11.72;78.97;98521.63;5246900;28;20031;-82
2024/03/27 07:02:01;;;;;;;4.25;2.20;;;;;;;11.72;79.69;98519.00;5247182;28;20030;-82
2024/03/27 07:04:33;;;;;;;3.38;2.35;;;;;;;11.69;80.00;98522.81;5249743;28;20067;-80
2024/03/27 07:07:05;;;;;;;4.20;2.08;;;;;;;11.78;79.33;98532.16;5247927;28;20061;-80
2024/03/27 07:09:37;;;;;;;3.87;2.50;;;;;;;11.81;79.86;98523.88;5246349;28;20045;-79
2024/03/27 07:12:09;;;;;;;3.22;2.42;;;;;;;11.82;78.25;98520.28;5250832;28;20293;-79
2024/03/27 07:14:41;;;;;;;3.88;2.50;;;;;;;11.79;78.95;98528.53;5248978;28;20037;-80
2024/03/27 07:17:13;;;;;;;4.88;2.67;;;;;;;11.78;78.78;98528.69;5249384;28;20029;-81
2024/03/27 07:19:48;;;;;;;4.68;2.30;;;;;;;11.89;78.18;98544.75;5249455;28;20568;-80
2024/03/27 07:22:20;;;;;;;4.43;3.05;;;;;;;11.63;79.60;98529.66;5250815;28;20032;-82
2024/03/27 07:24:52;;;;;;;3.80;2.67;;;;;;;11.67;79.79;98530.88;5248014;28;20037;-82
2024/03/27 07:27:24;;;;;;;6.35;2.75;;;;;;;11.80;79.54;98548.50;5246554;28;20036;-81
2024/03/27 07:29:56;;;;;;;4.85;2.80;;;;;;;11.78;79.40;98545.28;5250070;28;20327;-80
2024/03/27 07:32:28;;;;;;;3.40;2.67;;;;;;;11.85;79.50;98559.25;5247480;28;20043;-80
2024/03/27 07:35:00;;;;;;;3.78;2.60;;;;;;;11.92;79.33;98552.22;5247461;28;20029;-80
2024/03/27 07:37:31;;;;;;;5.05;2.70;;;;;;;11.97;79.42;98535.91;5249236;28;20033;-81
2024/03/27 07:40:06;;;;;;;5.20;2.90;;;;;;;12.02;78.27;98533.50;5244974;28;20036;-81
2024/03/27 07:42:38;;;;;;;4.68;3.03;;;;;;;12.07;76.57;98528.47;5249297;28;20816;-80
2024/03/27 07:45:10;;;;;;;7.45;3.10;;;;;;;12.22;78.08;98546.69;5249038;28;20049;-80
2024/03/27 07:47:42;;;;;;;4.90;3.33;;;;;;;12.21;75.93;98554.78;5230322;28;20486;-81
2024/03/27 07:50:15;;;;;;;4.70;4.10;;;;;;;12.23;75.29;98547.50;5248098;28;20614;-80
2024/03/27 07:52:47;;;;;;;5.88;3.70;;;;;;;12.17;75.29;98534.16;5250863;28;20123;-83
2024/03/27 07:55:19;;;;;;;6.88;4.28;;;;;;;12.17;75.74;98538.59;5247109;28;20033;-79
2024/03/27 07:57:51;;;;;;;5.63;3.67;;;;;;;12.10;73.59;98550.88;5246210;28;20044;-82
2024/03/27 08:00:23;;;;;;;5.05;3.42;;;;;;;12.24;73.19;98539.44;5246636;28;20025;-79
2024/03/27 08:02:55;;;;;;;5.68;3.50;;;;;;;12.33;73.55;98537.44;5247888;28;20410;-81
2024/03/27 08:05:26;;;;;;;7.60;3.40;;;;;;;12.38;73.30;98541.06;5246999;28;20112;-79
2024/03/27 08:07:59;;;;;;;5.03;3.10;;;;;;;12.37;71.61;98549.97;5242771;28;20037;-81
2024/03/27 08:10:31;;;;;;;4.03;3.10;;;;;;;12.44;70.87;98541.31;5240432;28;20029;-80
2024/03/27 08:13:03;;;;;;;5.82;2.70;;;;;;;12.41;70.99;98535.44;5245885;28;20367;-80
2024/03/27 08:15:38;;;;;;;4.30;2.83;;;;;;;12.60;70.41;98543.56;5245749;28;20029;-80
2024/03/27 08:18:10;;;;;;;4.93;2.75;;;;;;;12.38;69.55;98548.13;5243847;28;20541;-79
2024/03/27 08:20:51;;;;;;;3.50;2.25;;;;;;;12.71;71.58;98547.41;5243573;28;20112;-80
2024/03/27 08:23:22;;;;;;;5.00;2.67;;;;;;;12.48;69.41;98540.69;5247228;28;20768;-79
2024/03/27 08:25:54;;;;;;;4.78;2.70;;;;;;;12.47;68.28;98538.28;5245042;28;20043;-79
2024/03/27 08:28:26;;;;;;;4.00;2.45;;;;;;;12.50;69.66;98537.88;5244646;28;20033;-80
2024/03/27 08:30:58;;;;;;;3.17;2.50;;;;;;;12.49;69.81;98539.69;5224420;28;20048;-79
2024/03/27 08:33:30;;;;;;;5.88;2.60;;;;;;;12.51;68.83;98539.50;5244580;28;20410;-80
2024/03/27 08:36:04;;;;;;;5.57;2.85;;;;;;;12.38;70.38;98535.00;5245268;28;20237;-81
2024/03/27 08:38:36;;;;;;;4.95;3.03;;;;;;;12.48;69.93;98550.41;5226357;28;20800;-81
2024/03/27 08:41:08;;;;;;;3.03;2.20;;;;;;;12.31;71.46;98532.41;5246072;28;20033;-79
2024/03/27 08:43:40;;;;;;;2.97;2.58;;;;;;;12.43;73.32;98552.81;5245180;28;20041;-80
2024/03/27 08:46:11;;;;;;;3.63;2.42;;;;;;;12.30;72.77;98546.50;5246242;28;20049;-80
2024/03/27 08:48:43;;;;;;;5.30;2.63;;;;;;;12.33;74.26;98564.50;5245175;28;20020;-79
2024/03/27 08:51:15;;;;;;;4.97;2.72;;;;;;;12.24;74.15;98570.94;5246014;28;20029;-79
2024/03/27 08:53:47;;;;;;;3.25;2.28;;;;;;;12.18;77.40;98564.63;5241466;28;20037;-79
2024/03/27 08:56:19;;;;;;;5.22;2.80;;;;;;;12.12;80.09;98565.44;5245423;28;20501;-81
2024/03/27 08:58:51;;;;;;;3.10;2.17;;;;;;;12.04;84.88;98570.03;5245550;28;20378;-79
2024/03/27 09:01:23;;;;;;;3.50;2.17;;;;;;;12.02;85.10;98583.34;5245627;28;20037;-79
2024/03/27 09:03:55;;;;;;;4.57;2.63;;;;;;;11.96;86.36;98593.81;5246027;28;20040;-80
2024/03/27 09:06:27;;;;;;;3.95;2.40;;;;;;;11.86;90.29;98589.75;5244241;28;20051;-79
2024/03/27 09:08:59;;;;;;;3.50;2.42;;;;;;;11.87;89.75;98586.09;5240837;28;20037;-79
2024/03/27 09:11:31;;;;;;;3.88;2.22;;;;;;;11.83;92.20;98581.41;5245086;28;20029;-79
2024/03/27 09:14:03;;;;;;;4.13;2.65;;;;;;;11.85;92.53;98589.91;5246064;28;20033;-79
2024/03/27 09:16:34;;;;;;;3.47;2.40;;;;;;;11.87;93.57;98591.34;5243069;28;20661;-79
2024/03/27 09:19:08;;;;;;;5.35;2.40;;;;;;;11.90;96.91;98590.97;5242795;28;20414;-80
2024/03/27 09:21:40;;;;;;;;;;;;;;;12.77;87.27;98597.34;5246029;28;20021;-79
2024/03/27 09:24:11;;;;;;;3.90;2.35;;;;;;;12.01;95.82;98594.88;5245253;28;19982;-80
2024/03/27 09:26:43;;;;;;;3.22;2.15;;;;;;;11.93;95.07;98590.59;5245518;28;20544;-78
2024/03/27 09:29:16;;;;;;;4.60;2.75;;;;;;;11.96;96.13;98589.38;5243262;28;20060;-78
2024/03/27 09:31:48;;;;;;;4.88;2.47;;;;;;;11.98;95.74;98594.44;5244052;28;20039;-79
2024/03/27 09:34:20;;;;;;;4.00;2.38;;;;;;;11.93;95.45;98589.75;5245004;28;20479;-78
2024/03/27 09:36:51;;;;;;;5.97;2.75;;;;;;;11.97;94.11;98583.13;5245442;28;20055;-80
2024/03/27 09:39:24;;;;;;;3.40;2.83;;;;;;;11.92;97.80;98594.19;5243104;28;20032;-78
2024/03/27 09:42:00;;;;;;;3.22;2.50;;;;;;;11.86;95.50;98592.38;5245622;28;20398;-80
2024/03/27 09:44:32;;;;;;;5.15;2.78;;;;;;;11.88;97.11;98600.03;5244185;28;20055;-80
2024/03/27 09:47:05;;;;;;;3.58;2.78;;;;;;;11.85;99.35;98611.72;5244574;28;21612;-79
2024/03/27 09:49:38;;;;;;;4.50;3.00;;;;;;;11.75;96.29;98608.63;5244386;28;20025;-79
2024/03/27 09:52:10;;;;;;;4.90;3.63;;;;;;;11.83;95.32;98615.53;5245095;28;20368;-79
2024/03/27 09:54:42;;;;;;;4.35;3.10;;;;;;;11.95;98.80;98634.19;5246229;28;20039;-79
2024/03/27 09:57:14;;;;;;;5.60;3.33;;;;;;;11.95;96.80;98634.19;5245687;28;20025;-79
2024/03/27 09:59:45;;;;;;;5.40;3.40;;;;;;;11.92;95.86;98640.63;5244941;28;20032;-79
2024/03/27 10:02:17;;;;;;;4.97;3.60;;;;;;;11.98;98.17;98637.25;5244627;28;20479;-80
2024/03/27 10:04:49;;;;;;;5.35;4.07;;;;;;;12.07;99.33;98641.31;5243957;28;20033;-79
2024/03/27 10:07:22;;;;;;;6.05;4.00;;;;;;;12.11;99.50;98641.75;5244220;28;20036;-80
2024/03/27 10:09:54;;;;;;;6.03;4.57;;;;;;;12.07;97.43;98633.44;5242379;28;20043;-79
2024/03/27 10:12:28;;;;;;;6.47;4.28;;;;;;;12.10;96.71;98638.31;5243694;28;20033;-80
2024/03/27 10:15:00;;;;;;;4.45;4.05;;;;;;;12.10;97.07;98637.50;5243119;28;20060;-80
2024/03/27 10:17:32;;;;;;;7.20;4.13;;;;;;;12.24;97.00;98644.44;5242736;28;20375;-79
2024/03/27 10:20:06;;;;;;;6.18;5.25;;;;;;;12.25;98.03;98635.56;5243391;28;20306;-79
2024/03/27 10:22:39;;;;;;;5.40;4.40;;;;;;;12.15;97.31;98624.59;5243394;28;20029;-79
2024/03/27 10:25:11;;;;;;;6.45;5.65;;;;;;;12.29;94.13;98638.59;5224772;28;20055;-79
2024/03/27 10:27:43;;;;;;;6.47;4.78;;;;;;;12.31;95.90;98629.53;5244075;28;20035;-79
2024/03/27 10:30:15;;;;;;;5.50;4.72;;;;;;;12.13;98.37;98601.19;5239487;28;20331;-80
2024/03/27 10:32:47;;;;;;;8.10;4.95;;;;;;;12.44;97.86;98644.53;5243362;28;20043;-79
2024/03/27 10:35:21;;;;;;;6.07;5.47;;;;;;;12.51;96.78;98648.00;5244275;28;20032;-80
2024/03/27 10:37:53;;;;;;;5.95;5.07;;;;;;;12.58;94.76;98661.16;5242549;28;20033;-80
2024/03/27 10:40:26;;;;;;;6.15;5.50;;;;;;;12.69;92.29;98665.84;5224964;28;20037;-81
2024/03/27 10:43:04;;;;;;;5.85;5.20;;;;;;;12.94;94.14;98670.56;5243925;28;20482;-79
2024/03/27 10:45:39;;;;;;;5.50;5.00;;;;;;;12.81;91.78;98663.47;5244191;28;20064;-80
2024/03/27 10:48:11;;;;;;;6.93;5.28;;;;;;;12.64;91.25;98661.16;5228467;28;20052;-81
2024/03/27 10:50:45;;;;;;;6.75;5.75;;;;;;;12.64;91.99;98647.22;5248069;28;20471;-79
2024/03/27 10:53:18;;;;;;;6.05;5.15;;;;;;;12.68;90.21;98651.06;5248906;28;20036;-79
2024/03/27 10:55:52;;;;;;;5.35;4.78;;;;;;;12.75;89.25;98651.91;5247633;28;20600;-80
2024/03/27 10:58:25;;;;;;;6.10;5.50;;;;;;;12.81;87.91;98663.47;5246857;28;20518;-79
2024/03/27 11:00:58;;;;;;;6.45;5.50;;;;;;;12.89;86.49;98653.56;5248160;28;20028;-79
2024/03/27 11:03:30;;;;;;;5.93;5.32;;;;;;;13.06;86.57;98653.19;5247182;28;20045;-80
2024/03/27 11:06:03;;;;;;;6.63;4.73;;;;;;;13.07;84.11;98662.72;5248455;28;20033;-79
2024/03/27 11:08:35;;;;;;;;;;;;;;;13.95;80.47;98662.53;5248299;28;20036;-79
2024/03/27 11:11:12;;;;;;;6.82;5.30;;;;;;;13.43;81.38;98665.00;5248580;28;19917;-78
2024/03/27 11:13:45;;;;;;;5.70;5.07;;;;;;;13.37;80.44;98657.91;5247992;28;20036;-79
2024/03/27 11:16:21;;;;;;;5.80;4.80;;;;;;;13.50;78.93;98657.09;5248561;28;20029;-79
2024/03/27 11:18:53;;;;;;;4.50;4.00;;;;;;;13.46;76.75;98667.22;5246827;28;20033;-80
2024/03/27 11:21:27;;;;;;;4.32;3.63;;;;;;;13.55;71.58;98666.00;5248655;28;20505;-80
2024/03/27 11:24:04;;;;;;;4.00;3.03;;;;;;;13.72;74.43;98662.97;5248458;28;20425;-80
2024/03/27 11:26:35;;;;;;;5.32;2.75;;;;;;;13.68;71.89;98664.41;5247556;28;20471;-80
2024/03/27 11:29:07;;;;;;;3.33;2.53;;;;;;;13.73;69.48;98659.31;5247793;28;20112;-79
2024/03/27 11:31:40;;;;;;;4.90;2.60;;;;;;;13.62;65.13;98658.91;5247966;28;20059;-80
2024/03/27 11:34:12;;;;;;;4.10;2.27;;;;;;;13.75;67.03;98665.19;5247366;28;20571;-79
2024/03/27 11:36:45;;;;;;;2.40;1.92;;;;;;;13.71;65.15;98656.88;5248127;28;20040;-80
2024/03/27 11:39:17;;;;;;;3.67;2.13;;;;;;;13.81;65.70;98665.19;5247459;28;20036;-79
2024/03/27 11:41:49;;;;;;;3.38;2.17;;;;;;;13.74;66.01;98666.19;5248626;28;21034;-79
2024/03/27 11:44:20;;;;;;;5.90;2.60;;;;;;;13.83;66.98;98670.25;5246301;28;20044;-79
2024/03/27 11:46:53;;;;;;;3.05;2.05;;;;;;;13.80;65.89;98660.94;5245951;28;20029;-79
2024/03/27 11:49:25;;;;;;;4.18;2.30;;;;;;;13.91;64.02;98664.78;5246656;28;20025;-79
2024/03/27 11:51:57;;;;;;;3.67;2.65;;;;;;;13.97;64.92;98671.84;5246187;28;20512;-79
2024/03/27 11:54:29;;;;;;;4.57;2.60;;;;;;;14.00;65.55;98646.94;5247666;28;20039;-79
2024/03/27 11:57:01;;;;;;;3.78;2.63;;;;;;;14.19;64.04;98658.44;5245040;28;20033;-79